CYQU

Grande Prairie Airport

Grande Prairie, Alberta, Canada
METAR CYQU 190300Z 25012KT 25SM FEW220 M01/M06 A2934 RMK CI1 SLP972
Observed Flight Rules
Jan-19 @ 03:00 UTC (36 minutes ago) Visual Flight Rules
Wind Visibility Clouds
250° at 12 knots 25 miles
  • Few at 22,000' AGL
Temperatures Readings
Current -1°C / 30°F
Dewpoint -6°C / 21°F
Humidity 69%
Altimeter 29.34" Hg
Pressure 997.2 hPa
Elevation 669
METAR CYQU 190300Z 25012KT 25SM FEW220 M01/M06 A2934 RMK CI1 SLP972
Observed Flight Rules
Jan-19 @ 03:00 UTC
(36 minutes ago)
VFR
Wind Visibility
250° at 12 knots 25 miles
Clouds
  • Few at 22,000' AGL
Temperature Dewpoint
-1°C / 30°F -6°C / 21°F
Humidity Altimeter Pressure
69% 29.34" Hg 997.2 hPa